Drain, Oregon
Current Conditions -  °F | °C
As of 10:53 PM on Wednesday 26 Nov 2014 (Local Time) from KRBG Reporting Station
Scattered Clouds Scattered Clouds  
Wind Chill: 51°   Ceiling: Unl
Heat Index: 51°   Visibility: 8mi
Dew Point: 48°   Wind: 3mph
Humidity: 89%   Direction: 130°SE
Pressure: 30.08"   Gusts: NA
Location:  43.66°N, 123.32°W
Report Text: KRBG 270653Z AUTO 13003KT 8SM SCT110 11/09 A3008 RMK AO2 SLP187 T01060089 TSNO
Loading
Personal Weather Stations






























Interactive Weather Map New forecast layout! Learn more

10-Day Weather Forecast

Advertisements
Track Severe Weather on mobile